sensor_id;sensor_type;location;lat;lon;timestamp;P1;durP1;ratioP1;P2;durP2;ratioP2
48327;SDS011;34136;51.022;7.082;2023-01-29T00:01:43;45.40;;;27.80;;
48327;SDS011;34136;51.022;7.082;2023-01-29T00:04:29;47.50;;;29.03;;
48327;SDS011;34136;51.022;7.082;2023-01-29T00:07:16;45.73;;;29.73;;
48327;SDS011;34136;51.022;7.082;2023-01-29T00:10:02;46.77;;;30.03;;
48327;SDS011;34136;51.022;7.082;2023-01-29T00:12:48;47.03;;;29.10;;
48327;SDS011;34136;51.022;7.082;2023-01-29T00:15:34;50.47;;;30.10;;
48327;SDS011;34136;51.022;7.082;2023-01-29T00:18:21;45.80;;;27.77;;
48327;SDS011;34136;51.022;7.082;2023-01-29T00:21:08;46.67;;;28.33;;
48327;SDS011;34136;51.022;7.082;2023-01-29T00:24:04;48.93;;;29.70;;
48327;SDS011;34136;51.022;7.082;2023-01-29T00:26:50;43.90;;;27.87;;
48327;SDS011;34136;51.022;7.082;2023-01-29T00:29:37;47.07;;;29.83;;
48327;SDS011;34136;51.022;7.082;2023-01-29T00:32:23;47.93;;;29.97;;
48327;SDS011;34136;51.022;7.082;2023-01-29T00:35:10;48.60;;;29.13;;
48327;SDS011;34136;51.022;7.082;2023-01-29T00:37:56;49.50;;;30.50;;
48327;SDS011;34136;51.022;7.082;2023-01-29T00:40:43;47.70;;;29.03;;
48327;SDS011;34136;51.022;7.082;2023-01-29T00:43:29;46.03;;;29.23;;
48327;SDS011;34136;51.022;7.082;2023-01-29T00:46:15;46.23;;;29.10;;
48327;SDS011;34136;51.022;7.082;2023-01-29T00:49:02;45.27;;;28.20;;
48327;SDS011;34136;51.022;7.082;2023-01-29T00:51:49;45.63;;;29.47;;
48327;SDS011;34136;51.022;7.082;2023-01-29T00:54:35;45.70;;;30.13;;
48327;SDS011;34136;51.022;7.082;2023-01-29T00:57:22;47.77;;;30.17;;
48327;SDS011;34136;51.022;7.082;2023-01-29T01:00:10;48.63;;;30.30;;
48327;SDS011;34136;51.022;7.082;2023-01-29T01:02:58;50.67;;;29.93;;
48327;SDS011;34136;51.022;7.082;2023-01-29T01:05:45;47.87;;;30.37;;
48327;SDS011;34136;51.022;7.082;2023-01-29T01:08:31;48.83;;;30.20;;
48327;SDS011;34136;51.022;7.082;2023-01-29T01:11:17;53.63;;;31.23;;
48327;SDS011;34136;51.022;7.082;2023-01-29T01:14:04;46.40;;;29.70;;
48327;SDS011;34136;51.022;7.082;2023-01-29T01:16:50;44.63;;;28.63;;
48327;SDS011;34136;51.022;7.082;2023-01-29T01:19:36;46.97;;;27.17;;
48327;SDS011;34136;51.022;7.082;2023-01-29T01:22:22;41.67;;;27.33;;
48327;SDS011;34136;51.022;7.082;2023-01-29T01:25:08;40.50;;;26.03;;
48327;SDS011;34136;51.022;7.082;2023-01-29T01:27:55;43.10;;;26.63;;
48327;SDS011;34136;51.022;7.082;2023-01-29T01:30:43;42.87;;;26.87;;
48327;SDS011;34136;51.022;7.082;2023-01-29T01:33:29;40.23;;;26.07;;
48327;SDS011;34136;51.022;7.082;2023-01-29T01:36:16;40.83;;;26.27;;
48327;SDS011;34136;51.022;7.082;2023-01-29T01:39:02;44.83;;;27.77;;
48327;SDS011;34136;51.022;7.082;2023-01-29T01:41:49;42.03;;;27.07;;
48327;SDS011;34136;51.022;7.082;2023-01-29T01:47:40;43.13;;;26.90;;
48327;SDS011;34136;51.022;7.082;2023-01-29T01:56:20;43.87;;;23.67;;
48327;SDS011;34136;51.022;7.082;2023-01-29T01:59:10;44.20;;;28.10;;
48327;SDS011;34136;51.022;7.082;2023-01-29T02:04:47;43.87;;;26.90;;
48327;SDS011;34136;51.022;7.082;2023-01-29T02:07:35;47.47;;;27.77;;
48327;SDS011;34136;51.022;7.082;2023-01-29T02:10:26;50.08;;;29.73;;
48327;SDS011;34136;51.022;7.082;2023-01-29T02:13:20;49.03;;;28.37;;
48327;SDS011;34136;51.022;7.082;2023-01-29T02:16:07;52.53;;;31.73;;
48327;SDS011;34136;51.022;7.082;2023-01-29T02:18:53;48.03;;;27.93;;
48327;SDS011;34136;51.022;7.082;2023-01-29T02:21:49;51.43;;;30.73;;
48327;SDS011;34136;51.022;7.082;2023-01-29T02:31:36;47.93;;;27.03;;
48327;SDS011;34136;51.022;7.082;2023-01-29T02:37:13;45.13;;;26.37;;
48327;SDS011;34136;51.022;7.082;2023-01-29T02:40:11;51.47;;;28.90;;
48327;SDS011;34136;51.022;7.082;2023-01-29T02:43:26;48.77;;;27.70;;
48327;SDS011;34136;51.022;7.082;2023-01-29T02:52:40;48.30;;;28.30;;
48327;SDS011;34136;51.022;7.082;2023-01-29T02:56:06;53.57;;;28.13;;
48327;SDS011;34136;51.022;7.082;2023-01-29T02:58:58;47.73;;;29.03;;
48327;SDS011;34136;51.022;7.082;2023-01-29T03:01:53;49.13;;;28.30;;
48327;SDS011;34136;51.022;7.082;2023-01-29T03:04:44;49.83;;;29.63;;
48327;SDS011;34136;51.022;7.082;2023-01-29T03:07:36;44.50;;;27.93;;
48327;SDS011;34136;51.022;7.082;2023-01-29T03:16:20;44.20;;;26.03;;
48327;SDS011;34136;51.022;7.082;2023-01-29T03:19:15;47.43;;;26.40;;
48327;SDS011;34136;51.022;7.082;2023-01-29T03:22:07;45.03;;;27.03;;
48327;SDS011;34136;51.022;7.082;2023-01-29T03:24:58;47.73;;;28.53;;
48327;SDS011;34136;51.022;7.082;2023-01-29T03:27:54;47.90;;;28.37;;
48327;SDS011;34136;51.022;7.082;2023-01-29T03:30:48;48.67;;;28.50;;
48327;SDS011;34136;51.022;7.082;2023-01-29T03:34:06;48.40;;;29.57;;
48327;SDS011;34136;51.022;7.082;2023-01-29T03:37:07;45.23;;;28.13;;
48327;SDS011;34136;51.022;7.082;2023-01-29T03:39:57;45.47;;;27.75;;
48327;SDS011;34136;51.022;7.082;2023-01-29T03:49:14;41.30;;;26.37;;
48327;SDS011;34136;51.022;7.082;2023-01-29T03:52:17;48.13;;;27.10;;
48327;SDS011;34136;51.022;7.082;2023-01-29T03:58:42;45.67;;;27.23;;
48327;SDS011;34136;51.022;7.082;2023-01-29T04:04:35;42.53;;;26.17;;
48327;SDS011;34136;51.022;7.082;2023-01-29T04:07:24;48.77;;;27.60;;
48327;SDS011;34136;51.022;7.082;2023-01-29T04:10:21;47.10;;;27.43;;
48327;SDS011;34136;51.022;7.082;2023-01-29T04:13:11;48.67;;;28.13;;
48327;SDS011;34136;51.022;7.082;2023-01-29T04:16:01;49.57;;;29.13;;
48327;SDS011;34136;51.022;7.082;2023-01-29T04:19:09;49.97;;;29.00;;
48327;SDS011;34136;51.022;7.082;2023-01-29T04:22:01;49.60;;;28.57;;
48327;SDS011;34136;51.022;7.082;2023-01-29T04:24:52;53.50;;;29.97;;
48327;SDS011;34136;51.022;7.082;2023-01-29T04:31:01;55.10;;;29.00;;
48327;SDS011;34136;51.022;7.082;2023-01-29T04:34:02;51.27;;;30.93;;
48327;SDS011;34136;51.022;7.082;2023-01-29T04:40:09;50.33;;;28.57;;
48327;SDS011;34136;51.022;7.082;2023-01-29T04:43:07;45.67;;;27.47;;
48327;SDS011;34136;51.022;7.082;2023-01-29T04:46:11;50.03;;;27.70;;
48327;SDS011;34136;51.022;7.082;2023-01-29T04:49:26;46.80;;;27.57;;
48327;SDS011;34136;51.022;7.082;2023-01-29T04:55:35;49.55;;;27.67;;
48327;SDS011;34136;51.022;7.082;2023-01-29T04:58:29;49.97;;;28.08;;
48327;SDS011;34136;51.022;7.082;2023-01-29T05:01:22;46.53;;;27.40;;
48327;SDS011;34136;51.022;7.082;2023-01-29T05:04:13;48.40;;;28.27;;
48327;SDS011;34136;51.022;7.082;2023-01-29T05:07:03;49.83;;;29.43;;
48327;SDS011;34136;51.022;7.082;2023-01-29T05:09:52;53.03;;;28.97;;
48327;SDS011;34136;51.022;7.082;2023-01-29T05:12:39;50.80;;;28.50;;
48327;SDS011;34136;51.022;7.082;2023-01-29T05:15:29;48.20;;;27.47;;
48327;SDS011;34136;51.022;7.082;2023-01-29T05:18:21;48.87;;;27.97;;
48327;SDS011;34136;51.022;7.082;2023-01-29T05:21:07;46.73;;;28.17;;
48327;SDS011;34136;51.022;7.082;2023-01-29T05:26:56;45.53;;;27.83;;
48327;SDS011;34136;51.022;7.082;2023-01-29T05:29:44;43.57;;;27.40;;
48327;SDS011;34136;51.022;7.082;2023-01-29T05:32:31;50.87;;;27.93;;
48327;SDS011;34136;51.022;7.082;2023-01-29T05:35:17;44.40;;;26.10;;
48327;SDS011;34136;51.022;7.082;2023-01-29T05:38:03;48.80;;;28.30;;
48327;SDS011;34136;51.022;7.082;2023-01-29T05:40:50;52.43;;;28.60;;
48327;SDS011;34136;51.022;7.082;2023-01-29T05:43:36;47.30;;;29.27;;
48327;SDS011;34136;51.022;7.082;2023-01-29T05:46:22;49.53;;;29.47;;
48327;SDS011;34136;51.022;7.082;2023-01-29T05:49:09;47.67;;;28.03;;
48327;SDS011;34136;51.022;7.082;2023-01-29T05:51:55;49.63;;;27.77;;
48327;SDS011;34136;51.022;7.082;2023-01-29T05:54:41;50.93;;;29.27;;
48327;SDS011;34136;51.022;7.082;2023-01-29T05:57:28;51.57;;;29.50;;
48327;SDS011;34136;51.022;7.082;2023-01-29T06:00:16;49.53;;;29.03;;
48327;SDS011;34136;51.022;7.082;2023-01-29T06:03:03;46.40;;;27.43;;
48327;SDS011;34136;51.022;7.082;2023-01-29T06:05:49;47.80;;;27.83;;
48327;SDS011;34136;51.022;7.082;2023-01-29T06:08:35;49.10;;;28.23;;
48327;SDS011;34136;51.022;7.082;2023-01-29T06:11:24;47.83;;;28.40;;
48327;SDS011;34136;51.022;7.082;2023-01-29T06:14:10;47.43;;;28.33;;
48327;SDS011;34136;51.022;7.082;2023-01-29T06:16:57;47.83;;;27.20;;
48327;SDS011;34136;51.022;7.082;2023-01-29T06:19:43;46.90;;;27.53;;
48327;SDS011;34136;51.022;7.082;2023-01-29T06:22:33;45.33;;;26.43;;
48327;SDS011;34136;51.022;7.082;2023-01-29T06:25:19;47.80;;;28.90;;
48327;SDS011;34136;51.022;7.082;2023-01-29T06:28:05;50.20;;;28.60;;
48327;SDS011;34136;51.022;7.082;2023-01-29T06:30:52;48.20;;;28.33;;
48327;SDS011;34136;51.022;7.082;2023-01-29T06:33:38;45.17;;;27.70;;
48327;SDS011;34136;51.022;7.082;2023-01-29T06:36:24;46.13;;;27.30;;
48327;SDS011;34136;51.022;7.082;2023-01-29T06:39:11;45.90;;;27.00;;
48327;SDS011;34136;51.022;7.082;2023-01-29T06:41:57;50.63;;;28.30;;
48327;SDS011;34136;51.022;7.082;2023-01-29T06:44:43;45.60;;;26.27;;
48327;SDS011;34136;51.022;7.082;2023-01-29T06:47:29;48.83;;;27.67;;
48327;SDS011;34136;51.022;7.082;2023-01-29T06:50:16;50.37;;;28.87;;
48327;SDS011;34136;51.022;7.082;2023-01-29T06:53:03;45.43;;;29.00;;
48327;SDS011;34136;51.022;7.082;2023-01-29T06:55:52;49.97;;;30.50;;
48327;SDS011;34136;51.022;7.082;2023-01-29T06:58:39;54.03;;;30.67;;
48327;SDS011;34136;51.022;7.082;2023-01-29T07:01:25;50.60;;;30.17;;
48327;SDS011;34136;51.022;7.082;2023-01-29T07:04:11;57.57;;;31.50;;
48327;SDS011;34136;51.022;7.082;2023-01-29T07:06:58;53.80;;;30.50;;
48327;SDS011;34136;51.022;7.082;2023-01-29T07:09:44;49.57;;;28.47;;
48327;SDS011;34136;51.022;7.082;2023-01-29T07:12:31;53.67;;;30.70;;
48327;SDS011;34136;51.022;7.082;2023-01-29T07:15:18;48.33;;;28.67;;
48327;SDS011;34136;51.022;7.082;2023-01-29T07:18:04;49.20;;;29.50;;
48327;SDS011;34136;51.022;7.082;2023-01-29T07:20:50;47.87;;;29.13;;
48327;SDS011;34136;51.022;7.082;2023-01-29T07:23:37;53.30;;;31.33;;
48327;SDS011;34136;51.022;7.082;2023-01-29T07:26:23;45.40;;;27.80;;
48327;SDS011;34136;51.022;7.082;2023-01-29T07:29:09;47.90;;;29.17;;
48327;SDS011;34136;51.022;7.082;2023-01-29T07:31:56;48.77;;;28.63;;
48327;SDS011;34136;51.022;7.082;2023-01-29T07:34:42;50.27;;;28.53;;
48327;SDS011;34136;51.022;7.082;2023-01-29T07:37:28;50.57;;;29.50;;
48327;SDS011;34136;51.022;7.082;2023-01-29T07:40:15;52.37;;;30.27;;
48327;SDS011;34136;51.022;7.082;2023-01-29T07:43:02;47.63;;;29.83;;
48327;SDS011;34136;51.022;7.082;2023-01-29T07:45:52;52.63;;;32.00;;
48327;SDS011;34136;51.022;7.082;2023-01-29T07:48:38;53.00;;;31.80;;
48327;SDS011;34136;51.022;7.082;2023-01-29T07:51:24;55.67;;;32.83;;
48327;SDS011;34136;51.022;7.082;2023-01-29T07:54:10;51.03;;;31.67;;
48327;SDS011;34136;51.022;7.082;2023-01-29T07:56:57;53.47;;;31.30;;
48327;SDS011;34136;51.022;7.082;2023-01-29T07:59:43;60.03;;;31.87;;
48327;SDS011;34136;51.022;7.082;2023-01-29T08:02:29;55.93;;;31.67;;
48327;SDS011;34136;51.022;7.082;2023-01-29T08:05:15;58.67;;;34.83;;
48327;SDS011;34136;51.022;7.082;2023-01-29T08:08:02;65.47;;;39.03;;
48327;SDS011;34136;51.022;7.082;2023-01-29T08:10:48;65.33;;;38.10;;
48327;SDS011;34136;51.022;7.082;2023-01-29T08:13:34;68.80;;;39.13;;
48327;SDS011;34136;51.022;7.082;2023-01-29T08:16:20;68.03;;;39.60;;
48327;SDS011;34136;51.022;7.082;2023-01-29T08:19:07;72.07;;;41.60;;
48327;SDS011;34136;51.022;7.082;2023-01-29T08:21:53;71.97;;;43.50;;
48327;SDS011;34136;51.022;7.082;2023-01-29T08:24:39;72.97;;;41.83;;
48327;SDS011;34136;51.022;7.082;2023-01-29T08:27:25;69.10;;;41.67;;
48327;SDS011;34136;51.022;7.082;2023-01-29T08:30:12;72.73;;;41.20;;
48327;SDS011;34136;51.022;7.082;2023-01-29T08:32:58;67.00;;;40.77;;
48327;SDS011;34136;51.022;7.082;2023-01-29T08:35:48;69.30;;;42.40;;
48327;SDS011;34136;51.022;7.082;2023-01-29T08:38:35;73.73;;;42.03;;
48327;SDS011;34136;51.022;7.082;2023-01-29T08:41:21;62.83;;;38.80;;
48327;SDS011;34136;51.022;7.082;2023-01-29T08:44:08;67.37;;;39.63;;
48327;SDS011;34136;51.022;7.082;2023-01-29T08:46:54;68.63;;;40.77;;
48327;SDS011;34136;51.022;7.082;2023-01-29T08:49:40;66.63;;;39.77;;
48327;SDS011;34136;51.022;7.082;2023-01-29T08:52:27;66.50;;;40.20;;
48327;SDS011;34136;51.022;7.082;2023-01-29T08:55:13;67.77;;;40.73;;
48327;SDS011;34136;51.022;7.082;2023-01-29T08:57:59;67.00;;;38.83;;
48327;SDS011;34136;51.022;7.082;2023-01-29T09:00:46;71.33;;;42.17;;
48327;SDS011;34136;51.022;7.082;2023-01-29T09:03:32;65.50;;;39.43;;
48327;SDS011;34136;51.022;7.082;2023-01-29T09:06:18;66.23;;;39.03;;
48327;SDS011;34136;51.022;7.082;2023-01-29T09:09:05;62.33;;;39.43;;
48327;SDS011;34136;51.022;7.082;2023-01-29T09:11:52;63.30;;;39.27;;
48327;SDS011;34136;51.022;7.082;2023-01-29T09:14:39;60.20;;;38.70;;
48327;SDS011;34136;51.022;7.082;2023-01-29T09:17:25;62.50;;;39.50;;
48327;SDS011;34136;51.022;7.082;2023-01-29T09:20:11;62.80;;;37.67;;
48327;SDS011;34136;51.022;7.082;2023-01-29T09:22:57;59.33;;;38.70;;
48327;SDS011;34136;51.022;7.082;2023-01-29T09:25:44;60.53;;;37.93;;
48327;SDS011;34136;51.022;7.082;2023-01-29T09:28:30;64.37;;;38.33;;
48327;SDS011;34136;51.022;7.082;2023-01-29T09:31:16;60.67;;;38.93;;
48327;SDS011;34136;51.022;7.082;2023-01-29T09:34:02;58.17;;;37.87;;
48327;SDS011;34136;51.022;7.082;2023-01-29T09:36:50;60.47;;;38.60;;
48327;SDS011;34136;51.022;7.082;2023-01-29T09:39:37;59.17;;;36.90;;
48327;SDS011;34136;51.022;7.082;2023-01-29T09:42:27;53.60;;;35.40;;
48327;SDS011;34136;51.022;7.082;2023-01-29T09:45:27;55.30;;;35.13;;
48327;SDS011;34136;51.022;7.082;2023-01-29T09:48:13;58.60;;;36.83;;
48327;SDS011;34136;51.022;7.082;2023-01-29T09:51:02;59.50;;;38.13;;
48327;SDS011;34136;51.022;7.082;2023-01-29T09:54:11;57.47;;;36.37;;
48327;SDS011;34136;51.022;7.082;2023-01-29T09:57:07;57.15;;;36.38;;
48327;SDS011;34136;51.022;7.082;2023-01-29T09:59:59;60.70;;;37.13;;
48327;SDS011;34136;51.022;7.082;2023-01-29T10:08:59;53.77;;;35.60;;
48327;SDS011;34136;51.022;7.082;2023-01-29T10:12:22;53.43;;;35.10;;
48327;SDS011;34136;51.022;7.082;2023-01-29T10:27:50;55.40;;;34.43;;
48327;SDS011;34136;51.022;7.082;2023-01-29T10:30:39;51.22;;;34.00;;
48327;SDS011;34136;51.022;7.082;2023-01-29T10:33:36;49.67;;;31.40;;
48327;SDS011;34136;51.022;7.082;2023-01-29T10:36:27;50.43;;;33.70;;
48327;SDS011;34136;51.022;7.082;2023-01-29T10:39:18;45.85;;;32.53;;
48327;SDS011;34136;51.022;7.082;2023-01-29T10:47:45;50.97;;;33.10;;
48327;SDS011;34136;51.022;7.082;2023-01-29T10:50:39;50.47;;;31.57;;
48327;SDS011;34136;51.022;7.082;2023-01-29T10:53:47;53.20;;;35.17;;
48327;SDS011;34136;51.022;7.082;2023-01-29T11:00:26;49.80;;;33.47;;
48327;SDS011;34136;51.022;7.082;2023-01-29T11:07:23;48.00;;;32.20;;
48327;SDS011;34136;51.022;7.082;2023-01-29T11:10:18;49.10;;;33.37;;
48327;SDS011;34136;51.022;7.082;2023-01-29T11:13:07;47.40;;;33.00;;
48327;SDS011;34136;51.022;7.082;2023-01-29T11:15:59;47.60;;;32.90;;
48327;SDS011;34136;51.022;7.082;2023-01-29T11:18:49;47.20;;;34.00;;
48327;SDS011;34136;51.022;7.082;2023-01-29T11:21:52;48.00;;;33.10;;
48327;SDS011;34136;51.022;7.082;2023-01-29T11:24:42;49.97;;;32.67;;
48327;SDS011;34136;51.022;7.082;2023-01-29T11:27:31;49.47;;;33.47;;
48327;SDS011;34136;51.022;7.082;2023-01-29T11:30:29;45.47;;;33.77;;
48327;SDS011;34136;51.022;7.082;2023-01-29T11:33:21;46.17;;;33.50;;
48327;SDS011;34136;51.022;7.082;2023-01-29T11:39:19;50.00;;;33.50;;
48327;SDS011;34136;51.022;7.082;2023-01-29T11:42:08;50.30;;;33.80;;
48327;SDS011;34136;51.022;7.082;2023-01-29T11:45:23;52.73;;;34.70;;
48327;SDS011;34136;51.022;7.082;2023-01-29T11:51:07;45.30;;;31.40;;
48327;SDS011;34136;51.022;7.082;2023-01-29T11:54:00;50.33;;;34.50;;
48327;SDS011;34136;51.022;7.082;2023-01-29T11:59:42;49.57;;;34.00;;
48327;SDS011;34136;51.022;7.082;2023-01-29T12:02:35;56.07;;;34.43;;
48327;SDS011;34136;51.022;7.082;2023-01-29T12:05:30;50.13;;;34.87;;
48327;SDS011;34136;51.022;7.082;2023-01-29T12:08:16;53.50;;;34.77;;
48327;SDS011;34136;51.022;7.082;2023-01-29T12:11:23;52.73;;;36.13;;
48327;SDS011;34136;51.022;7.082;2023-01-29T12:14:23;49.97;;;34.80;;
48327;SDS011;34136;51.022;7.082;2023-01-29T12:20:10;51.70;;;36.57;;
48327;SDS011;34136;51.022;7.082;2023-01-29T12:23:12;50.47;;;34.67;;
48327;SDS011;34136;51.022;7.082;2023-01-29T12:26:14;53.67;;;37.00;;
48327;SDS011;34136;51.022;7.082;2023-01-29T12:32:21;52.10;;;34.57;;
48327;SDS011;34136;51.022;7.082;2023-01-29T12:35:27;47.50;;;34.37;;
48327;SDS011;34136;51.022;7.082;2023-01-29T12:38:18;48.63;;;35.53;;
48327;SDS011;34136;51.022;7.082;2023-01-29T12:41:16;47.37;;;33.67;;
48327;SDS011;34136;51.022;7.082;2023-01-29T12:44:15;48.17;;;34.70;;
48327;SDS011;34136;51.022;7.082;2023-01-29T12:47:18;50.20;;;34.27;;
48327;SDS011;34136;51.022;7.082;2023-01-29T12:56:31;52.97;;;33.57;;
48327;SDS011;34136;51.022;7.082;2023-01-29T12:59:18;47.83;;;33.83;;
48327;SDS011;34136;51.022;7.082;2023-01-29T13:02:29;49.10;;;34.33;;
48327;SDS011;34136;51.022;7.082;2023-01-29T13:05:40;50.57;;;32.03;;
48327;SDS011;34136;51.022;7.082;2023-01-29T13:08:30;46.53;;;33.43;;
48327;SDS011;34136;51.022;7.082;2023-01-29T13:11:32;48.37;;;33.90;;
48327;SDS011;34136;51.022;7.082;2023-01-29T13:17:53;44.70;;;31.77;;
48327;SDS011;34136;51.022;7.082;2023-01-29T13:20:43;42.97;;;30.73;;
48327;SDS011;34136;51.022;7.082;2023-01-29T13:23:45;42.03;;;30.47;;
48327;SDS011;34136;51.022;7.082;2023-01-29T13:26:35;42.93;;;31.57;;
48327;SDS011;34136;51.022;7.082;2023-01-29T13:29:23;45.33;;;32.67;;
48327;SDS011;34136;51.022;7.082;2023-01-29T13:32:18;43.67;;;31.08;;
48327;SDS011;34136;51.022;7.082;2023-01-29T13:35:13;43.30;;;30.50;;
48327;SDS011;34136;51.022;7.082;2023-01-29T13:38:00;43.17;;;30.27;;
48327;SDS011;34136;51.022;7.082;2023-01-29T13:40:47;41.77;;;30.10;;
48327;SDS011;34136;51.022;7.082;2023-01-29T13:43:41;41.57;;;30.87;;
48327;SDS011;34136;51.022;7.082;2023-01-29T13:46:33;39.70;;;28.27;;
48327;SDS011;34136;51.022;7.082;2023-01-29T13:49:28;40.50;;;29.60;;
48327;SDS011;34136;51.022;7.082;2023-01-29T13:55:32;40.53;;;28.97;;
48327;SDS011;34136;51.022;7.082;2023-01-29T14:01:16;40.67;;;29.73;;
48327;SDS011;34136;51.022;7.082;2023-01-29T14:04:31;40.13;;;28.43;;
48327;SDS011;34136;51.022;7.082;2023-01-29T14:07:37;36.97;;;28.07;;
48327;SDS011;34136;51.022;7.082;2023-01-29T14:10:34;37.93;;;28.10;;
48327;SDS011;34136;51.022;7.082;2023-01-29T14:13:27;36.87;;;26.60;;
48327;SDS011;34136;51.022;7.082;2023-01-29T14:19:05;36.73;;;26.53;;
48327;SDS011;34136;51.022;7.082;2023-01-29T14:21:58;39.93;;;28.77;;
48327;SDS011;34136;51.022;7.082;2023-01-29T14:24:44;35.03;;;26.93;;
48327;SDS011;34136;51.022;7.082;2023-01-29T14:27:30;40.40;;;29.60;;
48327;SDS011;34136;51.022;7.082;2023-01-29T14:30:17;37.17;;;27.70;;
48327;SDS011;34136;51.022;7.082;2023-01-29T14:33:03;39.93;;;27.87;;
48327;SDS011;34136;51.022;7.082;2023-01-29T14:35:50;37.20;;;27.63;;
48327;SDS011;34136;51.022;7.082;2023-01-29T14:38:39;36.43;;;27.63;;
48327;SDS011;34136;51.022;7.082;2023-01-29T14:41:32;37.07;;;28.03;;
48327;SDS011;34136;51.022;7.082;2023-01-29T14:59:02;36.77;;;28.03;;
48327;SDS011;34136;51.022;7.082;2023-01-29T15:01:59;36.30;;;27.13;;
48327;SDS011;34136;51.022;7.082;2023-01-29T15:04:50;38.87;;;26.73;;
48327;SDS011;34136;51.022;7.082;2023-01-29T15:07:43;37.17;;;28.17;;
48327;SDS011;34136;51.022;7.082;2023-01-29T15:10:37;35.77;;;27.10;;
48327;SDS011;34136;51.022;7.082;2023-01-29T15:13:31;39.97;;;28.00;;
48327;SDS011;34136;51.022;7.082;2023-01-29T15:16:43;39.10;;;28.33;;
48327;SDS011;34136;51.022;7.082;2023-01-29T15:19:35;37.90;;;26.70;;
48327;SDS011;34136;51.022;7.082;2023-01-29T15:22:23;40.10;;;28.43;;
48327;SDS011;34136;51.022;7.082;2023-01-29T15:25:13;39.57;;;28.13;;
48327;SDS011;34136;51.022;7.082;2023-01-29T15:27:59;35.20;;;26.77;;
48327;SDS011;34136;51.022;7.082;2023-01-29T15:30:54;36.40;;;27.30;;
48327;SDS011;34136;51.022;7.082;2023-01-29T15:33:41;36.90;;;27.40;;
48327;SDS011;34136;51.022;7.082;2023-01-29T15:36:30;38.73;;;28.70;;
48327;SDS011;34136;51.022;7.082;2023-01-29T15:42:13;39.40;;;28.48;;
48327;SDS011;34136;51.022;7.082;2023-01-29T15:44:59;35.47;;;27.00;;
48327;SDS011;34136;51.022;7.082;2023-01-29T15:47:47;39.70;;;28.37;;
48327;SDS011;34136;51.022;7.082;2023-01-29T15:50:36;38.37;;;28.37;;
48327;SDS011;34136;51.022;7.082;2023-01-29T15:53:30;39.37;;;29.57;;
48327;SDS011;34136;51.022;7.082;2023-01-29T15:56:22;40.00;;;28.00;;
48327;SDS011;34136;51.022;7.082;2023-01-29T15:59:18;39.23;;;28.47;;
48327;SDS011;34136;51.022;7.082;2023-01-29T16:05:26;39.50;;;29.13;;
48327;SDS011;34136;51.022;7.082;2023-01-29T16:08:14;37.43;;;28.63;;
48327;SDS011;34136;51.022;7.082;2023-01-29T16:11:02;38.70;;;28.37;;
48327;SDS011;34136;51.022;7.082;2023-01-29T16:13:50;38.53;;;28.33;;
48327;SDS011;34136;51.022;7.082;2023-01-29T16:16:37;42.03;;;29.33;;
48327;SDS011;34136;51.022;7.082;2023-01-29T16:19:24;38.23;;;28.30;;
48327;SDS011;34136;51.022;7.082;2023-01-29T16:22:12;36.30;;;27.73;;
48327;SDS011;34136;51.022;7.082;2023-01-29T16:25:06;37.40;;;27.47;;
48327;SDS011;34136;51.022;7.082;2023-01-29T16:27:56;37.47;;;26.30;;
48327;SDS011;34136;51.022;7.082;2023-01-29T16:30:43;38.03;;;26.27;;
48327;SDS011;34136;51.022;7.082;2023-01-29T16:33:33;39.53;;;27.97;;
48327;SDS011;34136;51.022;7.082;2023-01-29T16:36:23;41.90;;;27.47;;
48327;SDS011;34136;51.022;7.082;2023-01-29T16:39:16;39.23;;;26.97;;
48327;SDS011;34136;51.022;7.082;2023-01-29T16:45:04;38.67;;;26.80;;
48327;SDS011;34136;51.022;7.082;2023-01-29T16:54:24;35.77;;;24.23;;
48327;SDS011;34136;51.022;7.082;2023-01-29T16:57:12;34.57;;;22.73;;
48327;SDS011;34136;51.022;7.082;2023-01-29T17:00:17;28.17;;;20.13;;
48327;SDS011;34136;51.022;7.082;2023-01-29T17:03:11;29.37;;;18.47;;
48327;SDS011;34136;51.022;7.082;2023-01-29T17:06:12;30.90;;;20.10;;
48327;SDS011;34136;51.022;7.082;2023-01-29T17:09:04;26.33;;;17.40;;
48327;SDS011;34136;51.022;7.082;2023-01-29T17:12:14;21.10;;;14.87;;
48327;SDS011;34136;51.022;7.082;2023-01-29T17:15:04;26.53;;;16.20;;
48327;SDS011;34136;51.022;7.082;2023-01-29T17:18:15;23.10;;;14.57;;
48327;SDS011;34136;51.022;7.082;2023-01-29T17:21:03;23.97;;;15.07;;
48327;SDS011;34136;51.022;7.082;2023-01-29T17:23:49;24.43;;;15.00;;
48327;SDS011;34136;51.022;7.082;2023-01-29T17:26:36;21.83;;;14.20;;
48327;SDS011;34136;51.022;7.082;2023-01-29T17:29:24;20.10;;;13.37;;
48327;SDS011;34136;51.022;7.082;2023-01-29T17:32:14;19.90;;;11.67;;
48327;SDS011;34136;51.022;7.082;2023-01-29T17:35:01;18.43;;;11.53;;
48327;SDS011;34136;51.022;7.082;2023-01-29T17:37:47;19.30;;;12.17;;
48327;SDS011;34136;51.022;7.082;2023-01-29T17:40:38;17.03;;;11.10;;
48327;SDS011;34136;51.022;7.082;2023-01-29T17:43:31;18.63;;;10.57;;
48327;SDS011;34136;51.022;7.082;2023-01-29T17:46:17;17.07;;;11.53;;
48327;SDS011;34136;51.022;7.082;2023-01-29T17:49:10;21.97;;;12.80;;
48327;SDS011;34136;51.022;7.082;2023-01-29T17:52:07;19.67;;;13.27;;
48327;SDS011;34136;51.022;7.082;2023-01-29T17:54:54;18.97;;;13.40;;
48327;SDS011;34136;51.022;7.082;2023-01-29T17:57:40;20.67;;;13.83;;
48327;SDS011;34136;51.022;7.082;2023-01-29T18:00:28;30.10;;;17.87;;
48327;SDS011;34136;51.022;7.082;2023-01-29T18:03:15;25.73;;;16.73;;
48327;SDS011;34136;51.022;7.082;2023-01-29T18:06:01;28.10;;;17.73;;
48327;SDS011;34136;51.022;7.082;2023-01-29T18:08:47;30.07;;;16.87;;
48327;SDS011;34136;51.022;7.082;2023-01-29T18:11:34;25.43;;;16.53;;
48327;SDS011;34136;51.022;7.082;2023-01-29T18:14:20;28.33;;;18.47;;
48327;SDS011;34136;51.022;7.082;2023-01-29T18:17:06;23.57;;;15.23;;
48327;SDS011;34136;51.022;7.082;2023-01-29T18:19:52;24.77;;;15.87;;
48327;SDS011;34136;51.022;7.082;2023-01-29T18:22:39;22.73;;;14.77;;
48327;SDS011;34136;51.022;7.082;2023-01-29T18:25:32;23.90;;;15.90;;
48327;SDS011;34136;51.022;7.082;2023-01-29T18:28:22;22.70;;;14.50;;
48327;SDS011;34136;51.022;7.082;2023-01-29T18:31:09;24.30;;;14.77;;
48327;SDS011;34136;51.022;7.082;2023-01-29T18:33:55;23.03;;;15.10;;
48327;SDS011;34136;51.022;7.082;2023-01-29T18:36:41;26.83;;;16.13;;
48327;SDS011;34136;51.022;7.082;2023-01-29T18:39:27;24.73;;;16.57;;
48327;SDS011;34136;51.022;7.082;2023-01-29T18:42:13;25.67;;;16.73;;
48327;SDS011;34136;51.022;7.082;2023-01-29T18:44:59;22.13;;;16.43;;
48327;SDS011;34136;51.022;7.082;2023-01-29T18:47:46;26.87;;;17.23;;
48327;SDS011;34136;51.022;7.082;2023-01-29T18:50:32;26.80;;;16.83;;
48327;SDS011;34136;51.022;7.082;2023-01-29T18:53:19;24.13;;;16.20;;
48327;SDS011;34136;51.022;7.082;2023-01-29T18:56:05;28.80;;;17.90;;
48327;SDS011;34136;51.022;7.082;2023-01-29T18:58:55;27.87;;;18.60;;
48327;SDS011;34136;51.022;7.082;2023-01-29T19:01:41;26.60;;;17.43;;
48327;SDS011;34136;51.022;7.082;2023-01-29T19:04:27;26.20;;;18.57;;
48327;SDS011;34136;51.022;7.082;2023-01-29T19:07:14;29.10;;;18.10;;
48327;SDS011;34136;51.022;7.082;2023-01-29T19:10:00;27.07;;;18.67;;
48327;SDS011;34136;51.022;7.082;2023-01-29T19:12:46;31.50;;;19.27;;